sensor_id;sensor_type;location;lat;lon;timestamp;pressure;altitude;pressure_sealevel;temperature;humidity
11912;BME280;6016;41.928;25.556;2022-12-07T00:01:04;99280.22;;;10.73;83.03
11912;BME280;6016;41.928;25.556;2022-12-07T00:03:32;99290.59;;;10.54;82.39
11912;BME280;6016;41.928;25.556;2022-12-07T00:05:59;99287.69;;;10.67;82.73
11912;BME280;6016;41.928;25.556;2022-12-07T00:08:26;99210.53;;;10.14;83.04
11912;BME280;6016;41.928;25.556;2022-12-07T00:10:54;99000.09;;;8.89;83.49
11912;BME280;6016;41.928;25.556;2022-12-07T00:13:21;99268.69;;;10.64;82.93
11912;BME280;6016;41.928;25.556;2022-12-07T00:15:48;99184.44;;;10.11;82.86
11912;BME280;6016;41.928;25.556;2022-12-07T00:18:14;99278.84;;;10.68;82.66
11912;BME280;6016;41.928;25.556;2022-12-07T00:20:41;99278.84;;;10.68;83.11
11912;BME280;6016;41.928;25.556;2022-12-07T00:23:08;99243.94;;;10.45;82.50
11912;BME280;6016;41.928;25.556;2022-12-07T00:25:35;99275.63;;;10.65;82.30
11912;BME280;6016;41.928;25.556;2022-12-07T00:28:03;99277.16;;;10.67;82.09
11912;BME280;6016;41.928;25.556;2022-12-07T00:30:30;99182.78;;;10.10;82.66
11912;BME280;6016;41.928;25.556;2022-12-07T00:32:57;99254.72;;;10.32;82.64
11912;BME280;6016;41.928;25.556;2022-12-07T00:35:24;99227.63;;;10.30;83.11
11912;BME280;6016;41.928;25.556;2022-12-07T00:37:51;99166.22;;;9.98;81.82
11912;BME280;6016;41.928;25.556;2022-12-07T00:40:17;99274.38;;;10.49;82.02
11912;BME280;6016;41.928;25.556;2022-12-07T00:42:44;99269.97;;;10.69;81.60
11912;BME280;6016;41.928;25.556;2022-12-07T00:45:13;99097.47;;;9.61;82.19
11912;BME280;6016;41.928;25.556;2022-12-07T00:47:39;99094.16;;;9.59;82.67
11912;BME280;6016;41.928;25.556;2022-12-07T00:50:07;99215.97;;;10.33;82.77
11912;BME280;6016;41.928;25.556;2022-12-07T00:52:34;99274.94;;;10.73;81.87
11912;BME280;6016;41.928;25.556;2022-12-07T00:55:00;99267.03;;;10.73;82.61
11912;BME280;6016;41.928;25.556;2022-12-07T00:57:27;98919.69;;;8.55;82.13
11912;BME280;6016;41.928;25.556;2022-12-07T00:59:54;99257.97;;;10.46;82.34
11912;BME280;6016;41.928;25.556;2022-12-07T01:02:24;99229.53;;;10.49;83.22
11912;BME280;6016;41.928;25.556;2022-12-07T01:04:51;99215.44;;;10.39;82.58
11912;BME280;6016;41.928;25.556;2022-12-07T01:07:18;99275.38;;;10.78;82.64
11912;BME280;6016;41.928;25.556;2022-12-07T01:09:45;99155.81;;;9.97;81.60
11912;BME280;6016;41.928;25.556;2022-12-07T01:12:12;99177.91;;;10.16;81.96
11912;BME280;6016;41.928;25.556;2022-12-07T01:14:41;99264.81;;;10.78;82.78
11912;BME280;6016;41.928;25.556;2022-12-07T01:17:08;99191.38;;;10.22;81.71
11912;BME280;6016;41.928;25.556;2022-12-07T01:19:36;99165.41;;;10.08;82.30
11912;BME280;6016;41.928;25.556;2022-12-07T01:22:03;99261.59;;;10.74;81.90
11912;BME280;6016;41.928;25.556;2022-12-07T01:24:30;99265.63;;;10.59;82.75
11912;BME280;6016;41.928;25.556;2022-12-07T01:26:56;99253.97;;;10.71;82.79
11912;BME280;6016;41.928;25.556;2022-12-07T01:29:23;99256.63;;;10.71;82.02
11912;BME280;6016;41.928;25.556;2022-12-07T01:31:50;99252.03;;;10.73;82.25
11912;BME280;6016;41.928;25.556;2022-12-07T01:34:17;99131.84;;;10.00;82.13
11912;BME280;6016;41.928;25.556;2022-12-07T01:36:45;99184.91;;;10.26;82.81
11912;BME280;6016;41.928;25.556;2022-12-07T01:39:12;99157.69;;;10.16;81.89
11912;BME280;6016;41.928;25.556;2022-12-07T01:41:40;99191.34;;;10.44;82.28
11912;BME280;6016;41.928;25.556;2022-12-07T01:44:20;99241.34;;;10.75;82.64
11912;BME280;6016;41.928;25.556;2022-12-07T01:46:48;99241.47;;;10.73;83.02
11912;BME280;6016;41.928;25.556;2022-12-07T01:49:23;99231.63;;;10.65;82.74
11912;BME280;6016;41.928;25.556;2022-12-07T01:51:57;99212.03;;;10.58;82.94
11912;BME280;6016;41.928;25.556;2022-12-07T01:54:25;99231.78;;;10.74;83.42
11912;BME280;6016;41.928;25.556;2022-12-07T01:56:54;99233.56;;;10.73;82.67
11912;BME280;6016;41.928;25.556;2022-12-07T01:59:24;99153.50;;;10.23;82.53
11912;BME280;6016;41.928;25.556;2022-12-07T02:01:52;99136.16;;;10.11;82.09
11912;BME280;6016;41.928;25.556;2022-12-07T02:04:21;99217.16;;;10.50;82.82
11912;BME280;6016;41.928;25.556;2022-12-07T02:06:48;99226.50;;;10.64;83.08
11912;BME280;6016;41.928;25.556;2022-12-07T02:09:18;99225.38;;;10.66;82.28
11912;BME280;6016;41.928;25.556;2022-12-07T02:11:44;99225.38;;;10.66;82.68
11912;BME280;6016;41.928;25.556;2022-12-07T02:14:11;99214.47;;;10.40;82.71
11912;BME280;6016;41.928;25.556;2022-12-07T02:16:47;99226.50;;;10.64;83.48
11912;BME280;6016;41.928;25.556;2022-12-07T02:22:39;99213.53;;;10.41;82.83
11912;BME280;6016;41.928;25.556;2022-12-07T02:25:23;99189.63;;;10.33;82.94
11912;BME280;6016;41.928;25.556;2022-12-07T02:28:01;99198.38;;;10.33;83.11
11912;BME280;6016;41.928;25.556;2022-12-07T02:30:34;99199.34;;;10.32;83.04
11912;BME280;6016;41.928;25.556;2022-12-07T02:33:04;99223.41;;;10.49;83.66
11912;BME280;6016;41.928;25.556;2022-12-07T02:35:33;99146.84;;;10.09;83.50
11912;BME280;6016;41.928;25.556;2022-12-07T02:38:10;99207.19;;;10.53;83.74
11912;BME280;6016;41.928;25.556;2022-12-07T02:40:41;99206.06;;;10.56;83.61
11912;BME280;6016;41.928;25.556;2022-12-07T02:43:14;99170.75;;;10.37;83.70
11912;BME280;6016;41.928;25.556;2022-12-07T02:45:44;99200.03;;;10.34;84.88
11912;BME280;6016;41.928;25.556;2022-12-07T02:48:13;99171.69;;;10.17;84.75
11912;BME280;6016;41.928;25.556;2022-12-07T02:50:44;99204.91;;;10.39;84.46
11912;BME280;6016;41.928;25.556;2022-12-07T02:53:30;99195.72;;;10.33;84.70
11912;BME280;6016;41.928;25.556;2022-12-07T02:55:58;99163.78;;;10.17;84.77
11912;BME280;6016;41.928;25.556;2022-12-07T02:58:34;99050.75;;;9.53;83.88
11912;BME280;6016;41.928;25.556;2022-12-07T03:01:13;99141.00;;;10.06;84.11
11912;BME280;6016;41.928;25.556;2022-12-07T03:03:47;99189.03;;;10.29;84.23
11912;BME280;6016;41.928;25.556;2022-12-07T03:06:22;99193.66;;;10.37;83.48
11912;BME280;6016;41.928;25.556;2022-12-07T03:08:57;99208.97;;;10.43;84.40
11912;BME280;6016;41.928;25.556;2022-12-07T03:11:29;99196.34;;;10.47;84.45
11912;BME280;6016;41.928;25.556;2022-12-07T03:14:03;99151.03;;;10.22;83.80
11912;BME280;6016;41.928;25.556;2022-12-07T03:16:40;99152.56;;;10.24;83.75
11912;BME280;6016;41.928;25.556;2022-12-07T03:19:13;99183.53;;;10.32;83.53
11912;BME280;6016;41.928;25.556;2022-12-07T03:21:45;99194.94;;;10.43;83.71
11912;BME280;6016;41.928;25.556;2022-12-07T03:24:15;99104.34;;;9.83;84.51
11912;BME280;6016;41.928;25.556;2022-12-07T03:26:46;99198.47;;;10.22;85.02
11912;BME280;6016;41.928;25.556;2022-12-07T03:29:19;99184.31;;;9.72;86.81
11912;BME280;6016;41.928;25.556;2022-12-07T03:31:53;99184.94;;;9.95;86.19
11912;BME280;6016;41.928;25.556;2022-12-07T03:34:28;99120.22;;;9.62;85.36
11912;BME280;6016;41.928;25.556;2022-12-07T03:37:00;99159.06;;;9.69;86.66
11912;BME280;6016;41.928;25.556;2022-12-07T03:39:32;99195.69;;;10.13;86.25
11912;BME280;6016;41.928;25.556;2022-12-07T03:42:03;99174.88;;;10.10;85.65
11912;BME280;6016;41.928;25.556;2022-12-07T03:44:32;99191.38;;;10.22;85.56
11912;BME280;6016;41.928;25.556;2022-12-07T03:47:05;99192.50;;;10.20;85.96
11912;BME280;6016;41.928;25.556;2022-12-07T03:49:37;99139.44;;;9.93;85.00
11912;BME280;6016;41.928;25.556;2022-12-07T03:52:12;99193.09;;;10.33;84.79
11912;BME280;6016;41.928;25.556;2022-12-07T03:54:46;99184.75;;;10.28;84.36
11912;BME280;6016;41.928;25.556;2022-12-07T03:57:15;99139.75;;;10.00;84.47
11912;BME280;6016;41.928;25.556;2022-12-07T03:59:43;99136.97;;;10.02;84.77
11912;BME280;6016;41.928;25.556;2022-12-07T04:02:12;99105.59;;;9.89;84.66
11912;BME280;6016;41.928;25.556;2022-12-07T04:04:40;99184.63;;;10.39;84.52
11912;BME280;6016;41.928;25.556;2022-12-07T04:07:08;99183.44;;;10.44;84.32
11912;BME280;6016;41.928;25.556;2022-12-07T04:09:36;99177.03;;;10.46;84.33
11912;BME280;6016;41.928;25.556;2022-12-07T04:12:03;99128.25;;;10.11;84.33
11912;BME280;6016;41.928;25.556;2022-12-07T04:14:30;99187.19;;;10.51;84.10
11912;BME280;6016;41.928;25.556;2022-12-07T04:16:58;99179.13;;;10.52;83.42
11912;BME280;6016;41.928;25.556;2022-12-07T04:19:28;99079.41;;;9.97;83.23
11912;BME280;6016;41.928;25.556;2022-12-07T04:21:55;99182.88;;;10.50;83.23
11912;BME280;6016;41.928;25.556;2022-12-07T04:24:23;99114.38;;;9.99;84.80
11912;BME280;6016;41.928;25.556;2022-12-07T04:26:50;99180.19;;;10.40;83.69
11912;BME280;6016;41.928;25.556;2022-12-07T04:29:18;98425.84;;;5.67;83.53
11912;BME280;6016;41.928;25.556;2022-12-07T04:31:45;99142.28;;;10.21;84.22
11912;BME280;6016;41.928;25.556;2022-12-07T04:34:12;99186.47;;;10.49;84.37
11912;BME280;6016;41.928;25.556;2022-12-07T04:36:41;99181.91;;;10.51;83.34
11912;BME280;6016;41.928;25.556;2022-12-07T04:39:17;99184.41;;;10.52;83.93
11912;BME280;6016;41.928;25.556;2022-12-07T04:41:44;99118.16;;;10.16;83.22
11912;BME280;6016;41.928;25.556;2022-12-07T04:44:12;99180.94;;;10.52;83.20
11912;BME280;6016;41.928;25.556;2022-12-07T04:46:40;99173.88;;;10.52;84.18
11912;BME280;6016;41.928;25.556;2022-12-07T04:49:08;99173.00;;;10.52;83.55
11912;BME280;6016;41.928;25.556;2022-12-07T04:51:35;99169.56;;;10.51;82.76
11912;BME280;6016;41.928;25.556;2022-12-07T04:54:03;99132.31;;;10.25;83.70
11912;BME280;6016;41.928;25.556;2022-12-07T04:56:30;99177.19;;;10.45;83.54
11912;BME280;6016;41.928;25.556;2022-12-07T04:58:57;99151.28;;;10.09;83.84
11912;BME280;6016;41.928;25.556;2022-12-07T05:01:24;99169.94;;;10.37;83.99
11912;BME280;6016;41.928;25.556;2022-12-07T05:03:51;99180.72;;;10.34;83.89
11912;BME280;6016;41.928;25.556;2022-12-07T05:06:18;99135.03;;;9.94;83.80
11912;BME280;6016;41.928;25.556;2022-12-07T05:08:45;99182.25;;;10.26;84.46
11912;BME280;6016;41.928;25.556;2022-12-07T05:11:14;99185.72;;;10.27;84.00
11912;BME280;6016;41.928;25.556;2022-12-07T05:14:01;99080.72;;;9.62;84.02
11912;BME280;6016;41.928;25.556;2022-12-07T05:16:29;99192.53;;;10.30;84.31
11912;BME280;6016;41.928;25.556;2022-12-07T05:18:56;99187.38;;;10.28;83.70
11912;BME280;6016;41.928;25.556;2022-12-07T05:21:23;99184.22;;;10.24;83.43
11912;BME280;6016;41.928;25.556;2022-12-07T05:23:50;99180.72;;;10.24;84.07
11912;BME280;6016;41.928;25.556;2022-12-07T05:26:18;99181.81;;;10.21;83.92
11912;BME280;6016;41.928;25.556;2022-12-07T05:28:49;99148.03;;;9.85;82.93
11912;BME280;6016;41.928;25.556;2022-12-07T05:31:16;99176.41;;;10.13;82.79
11912;BME280;6016;41.928;25.556;2022-12-07T05:33:42;99152.63;;;10.03;82.93
11912;BME280;6016;41.928;25.556;2022-12-07T05:36:09;99128.44;;;9.78;83.08
11912;BME280;6016;41.928;25.556;2022-12-07T05:38:36;99180.72;;;10.14;83.83
11912;BME280;6016;41.928;25.556;2022-12-07T05:41:04;99179.03;;;10.13;83.10
11912;BME280;6016;41.928;25.556;2022-12-07T05:43:33;99128.44;;;9.78;83.10
11912;BME280;6016;41.928;25.556;2022-12-07T05:46:00;99177.78;;;10.07;83.64
11912;BME280;6016;41.928;25.556;2022-12-07T05:48:26;99176.34;;;10.03;83.62
11912;BME280;6016;41.928;25.556;2022-12-07T05:50:53;99173.03;;;10.01;83.87
11912;BME280;6016;41.928;25.556;2022-12-07T05:53:20;99180.66;;;10.04;83.90
11912;BME280;6016;41.928;25.556;2022-12-07T05:55:47;99183.44;;;10.03;83.72
11912;BME280;6016;41.928;25.556;2022-12-07T05:58:14;99095.50;;;9.43;83.95
11912;BME280;6016;41.928;25.556;2022-12-07T06:00:59;99181.38;;;10.06;84.23
11912;BME280;6016;41.928;25.556;2022-12-07T06:03:26;99181.38;;;10.06;84.51
11912;BME280;6016;41.928;25.556;2022-12-07T06:05:53;99190.25;;;10.05;84.25
11912;BME280;6016;41.928;25.556;2022-12-07T06:08:20;99168.44;;;9.93;84.54
11912;BME280;6016;41.928;25.556;2022-12-07T06:10:47;99190.38;;;10.04;83.72
11912;BME280;6016;41.928;25.556;2022-12-07T06:13:36;99202.88;;;10.02;84.55
11912;BME280;6016;41.928;25.556;2022-12-07T06:16:03;99159.09;;;9.79;84.44
11912;BME280;6016;41.928;25.556;2022-12-07T06:18:30;99172.16;;;9.91;84.24
11912;BME280;6016;41.928;25.556;2022-12-07T06:20:57;99205.41;;;10.13;84.83
11912;BME280;6016;41.928;25.556;2022-12-07T06:23:24;99199.28;;;10.22;84.32
11912;BME280;6016;41.928;25.556;2022-12-07T06:25:51;99195.44;;;10.26;84.94
11912;BME280;6016;41.928;25.556;2022-12-07T06:28:18;99197.25;;;10.36;84.67
11912;BME280;6016;41.928;25.556;2022-12-07T06:30:45;99193.97;;;10.44;84.35
11912;BME280;6016;41.928;25.556;2022-12-07T06:33:13;99193.31;;;10.51;84.67
11912;BME280;6016;41.928;25.556;2022-12-07T06:35:41;99184.97;;;10.56;83.45
11912;BME280;6016;41.928;25.556;2022-12-07T06:38:08;99189.69;;;10.62;83.42
11912;BME280;6016;41.928;25.556;2022-12-07T06:40:34;99135.56;;;9.97;82.84
11912;BME280;6016;41.928;25.556;2022-12-07T06:43:01;99106.34;;;10.20;83.21
11912;BME280;6016;41.928;25.556;2022-12-07T06:45:28;99144.56;;;10.46;82.97
11912;BME280;6016;41.928;25.556;2022-12-07T06:47:55;99194.84;;;10.74;82.77
11912;BME280;6016;41.928;25.556;2022-12-07T06:50:23;99168.31;;;10.55;83.00
11912;BME280;6016;41.928;25.556;2022-12-07T06:52:50;99197.75;;;10.80;83.83
11912;BME280;6016;41.928;25.556;2022-12-07T06:55:17;99199.81;;;10.87;82.32
11912;BME280;6016;41.928;25.556;2022-12-07T06:57:44;99132.38;;;10.45;82.55
11912;BME280;6016;41.928;25.556;2022-12-07T07:00:12;99159.13;;;10.60;82.59
11912;BME280;6016;41.928;25.556;2022-12-07T07:02:39;99150.25;;;10.41;83.53
11912;BME280;6016;41.928;25.556;2022-12-07T07:05:07;99163.59;;;10.49;83.43
11912;BME280;6016;41.928;25.556;2022-12-07T07:07:35;99195.13;;;10.80;83.69
11912;BME280;6016;41.928;25.556;2022-12-07T07:10:02;99202.31;;;10.88;82.80
11912;BME280;6016;41.928;25.556;2022-12-07T07:12:29;99203.44;;;10.95;83.31
11912;BME280;6016;41.928;25.556;2022-12-07T07:14:56;99214.28;;;11.02;82.61
11912;BME280;6016;41.928;25.556;2022-12-07T07:17:23;99215.53;;;11.08;82.58
11912;BME280;6016;41.928;25.556;2022-12-07T07:19:49;99216.22;;;11.10;82.84
11912;BME280;6016;41.928;25.556;2022-12-07T07:22:16;99209.84;;;11.13;81.67
11912;BME280;6016;41.928;25.556;2022-12-07T07:24:45;99211.75;;;11.10;81.06
11912;BME280;6016;41.928;25.556;2022-12-07T07:27:12;99204.00;;;11.09;81.48
11912;BME280;6016;41.928;25.556;2022-12-07T07:29:39;99205.38;;;11.13;82.08
11912;BME280;6016;41.928;25.556;2022-12-07T07:32:05;99151.91;;;10.81;81.08
11912;BME280;6016;41.928;25.556;2022-12-07T07:34:33;99056.69;;;10.25;81.64
11912;BME280;6016;41.928;25.556;2022-12-07T07:37:00;99179.97;;;11.02;81.94
11912;BME280;6016;41.928;25.556;2022-12-07T07:39:26;99139.03;;;10.78;81.39
11912;BME280;6016;41.928;25.556;2022-12-07T07:41:55;99198.66;;;11.29;81.47
11912;BME280;6016;41.928;25.556;2022-12-07T07:44:21;99153.72;;;10.91;81.23
11912;BME280;6016;41.928;25.556;2022-12-07T07:46:48;99210.03;;;11.49;81.91
11912;BME280;6016;41.928;25.556;2022-12-07T07:49:15;99210.16;;;11.57;80.36
11912;BME280;6016;41.928;25.556;2022-12-07T07:51:43;99089.75;;;10.59;80.89
11912;BME280;6016;41.928;25.556;2022-12-07T07:54:13;99212.34;;;11.72;79.91
11912;BME280;6016;41.928;25.556;2022-12-07T07:56:39;99115.19;;;11.18;79.42
11912;BME280;6016;41.928;25.556;2022-12-07T07:59:08;99109.66;;;11.11;78.53
11912;BME280;6016;41.928;25.556;2022-12-07T08:01:35;99198.44;;;11.70;79.58
11912;BME280;6016;41.928;25.556;2022-12-07T08:04:01;99141.03;;;11.14;79.20
11912;BME280;6016;41.928;25.556;2022-12-07T08:06:28;98956.81;;;10.03;80.18
11912;BME280;6016;41.928;25.556;2022-12-07T08:08:55;99216.97;;;11.60;80.46
11912;BME280;6016;41.928;25.556;2022-12-07T08:11:23;99088.03;;;10.78;80.19
11912;BME280;6016;41.928;25.556;2022-12-07T08:13:50;99171.13;;;11.41;80.50
11912;BME280;6016;41.928;25.556;2022-12-07T08:16:18;99208.56;;;11.74;80.21
11912;BME280;6016;41.928;25.556;2022-12-07T08:18:45;99136.88;;;11.21;79.56
11912;BME280;6016;41.928;25.556;2022-12-07T08:21:14;99214.31;;;11.60;79.10
11912;BME280;6016;41.928;25.556;2022-12-07T08:23:41;99117.72;;;11.00;79.28
11912;BME280;6016;41.928;25.556;2022-12-07T08:26:10;99203.34;;;11.64;79.38
11912;BME280;6016;41.928;25.556;2022-12-07T08:28:37;99156.50;;;11.47;79.07
11912;BME280;6016;41.928;25.556;2022-12-07T08:31:06;99187.03;;;11.69;78.63
11912;BME280;6016;41.928;25.556;2022-12-07T08:33:35;99212.81;;;11.95;79.38
11912;BME280;6016;41.928;25.556;2022-12-07T08:36:04;99187.81;;;11.89;78.01
11912;BME280;6016;41.928;25.556;2022-12-07T08:38:31;99126.84;;;11.63;78.44
11912;BME280;6016;41.928;25.556;2022-12-07T08:40:58;99177.75;;;11.93;77.31
11912;BME280;6016;41.928;25.556;2022-12-07T08:43:25;99208.47;;;11.94;76.27
11912;BME280;6016;41.928;25.556;2022-12-07T08:45:56;98950.94;;;10.38;76.98
11912;BME280;6016;41.928;25.556;2022-12-07T08:48:27;99057.41;;;11.05;76.30
11912;BME280;6016;41.928;25.556;2022-12-07T08:50:56;99200.03;;;11.90;76.77
11912;BME280;6016;41.928;25.556;2022-12-07T08:53:22;99070.19;;;11.09;77.08
11912;BME280;6016;41.928;25.556;2022-12-07T08:55:50;99186.84;;;11.80;77.02
11912;BME280;6016;41.928;25.556;2022-12-07T08:58:17;99111.78;;;11.35;78.39
11912;BME280;6016;41.928;25.556;2022-12-07T09:00:43;99182.34;;;11.91;77.06
11912;BME280;6016;41.928;25.556;2022-12-07T09:03:10;99182.22;;;11.92;76.75
11912;BME280;6016;41.928;25.556;2022-12-07T09:05:37;99170.66;;;11.65;76.10
11912;BME280;6016;41.928;25.556;2022-12-07T09:08:06;99179.31;;;11.58;77.62
11912;BME280;6016;41.928;25.556;2022-12-07T09:10:33;99162.94;;;11.44;77.23
11912;BME280;6016;41.928;25.556;2022-12-07T09:13:00;99118.22;;;11.23;78.52
11912;BME280;6016;41.928;25.556;2022-12-07T09:15:27;99165.38;;;11.65;78.19
11912;BME280;6016;41.928;25.556;2022-12-07T09:17:54;99090.44;;;11.19;77.34
11912;BME280;6016;41.928;25.556;2022-12-07T09:20:21;99037.22;;;10.76;78.19
11912;BME280;6016;41.928;25.556;2022-12-07T09:22:48;99186.25;;;11.49;78.41
11912;BME280;6016;41.928;25.556;2022-12-07T09:25:16;98813.94;;;9.32;77.01
11912;BME280;6016;41.928;25.556;2022-12-07T09:27:43;99152.16;;;11.56;76.48
11912;BME280;6016;41.928;25.556;2022-12-07T09:30:10;99146.78;;;11.47;76.73
11912;BME280;6016;41.928;25.556;2022-12-07T09:32:37;99167.63;;;11.50;77.32
11912;BME280;6016;41.928;25.556;2022-12-07T09:35:04;98996.00;;;10.75;77.95
11912;BME280;6016;41.928;25.556;2022-12-07T09:37:31;99147.38;;;11.79;78.13
11912;BME280;6016;41.928;25.556;2022-12-07T09:40:00;99151.97;;;11.77;78.82
11912;BME280;6016;41.928;25.556;2022-12-07T09:42:33;99136.94;;;12.05;77.48
11912;BME280;6016;41.928;25.556;2022-12-07T09:45:01;99129.34;;;12.20;76.31
11912;BME280;6016;41.928;25.556;2022-12-07T09:47:29;99131.25;;;12.28;75.90
11912;BME280;6016;41.928;25.556;2022-12-07T09:50:00;99124.59;;;12.24;74.97
11912;BME280;6016;41.928;25.556;2022-12-07T09:52:30;99125.41;;;12.61;75.40
11912;BME280;6016;41.928;25.556;2022-12-07T09:54:57;99127.75;;;12.64;73.16
11912;BME280;6016;41.928;25.556;2022-12-07T09:57:30;99124.97;;;12.65;73.14
11912;BME280;6016;41.928;25.556;2022-12-07T10:00:00;99126.25;;;12.61;73.84
11912;BME280;6016;41.928;25.556;2022-12-07T10:02:35;99060.81;;;12.27;74.98
11912;BME280;6016;41.928;25.556;2022-12-07T10:05:04;99109.53;;;12.61;73.43
11912;BME280;6016;41.928;25.556;2022-12-07T10:07:31;99070.31;;;12.38;73.98
11912;BME280;6016;41.928;25.556;2022-12-07T10:09:58;98737.34;;;10.48;73.59
11912;BME280;6016;41.928;25.556;2022-12-07T10:12:25;99012.06;;;12.48;72.27
11912;BME280;6016;41.928;25.556;2022-12-07T10:15:01;98856.03;;;11.59;71.05
11912;BME280;6016;41.928;25.556;2022-12-07T10:17:31;99106.47;;;13.18;71.15
11912;BME280;6016;41.928;25.556;2022-12-07T10:20:23;99093.81;;;13.30;72.10
11912;BME280;6016;41.928;25.556;2022-12-07T10:22:59;99088.78;;;13.19;69.56
11912;BME280;6016;41.928;25.556;2022-12-07T10:25:29;98948.81;;;12.36;69.99
11912;BME280;6016;41.928;25.556;2022-12-07T10:28:08;98956.13;;;12.43;70.11
11912;BME280;6016;41.928;25.556;2022-12-07T10:30:54;99010.25;;;12.75;69.82
11912;BME280;6016;41.928;25.556;2022-12-07T10:33:33;99089.53;;;13.37;69.84
11912;BME280;6016;41.928;25.556;2022-12-07T10:36:03;99048.38;;;13.17;68.55
11912;BME280;6016;41.928;25.556;2022-12-07T10:38:44;99076.94;;;13.40;69.50
11912;BME280;6016;41.928;25.556;2022-12-07T10:41:12;99079.34;;;13.51;68.88
11912;BME280;6016;41.928;25.556;2022-12-07T10:43:47;99080.72;;;13.55;68.04
11912;BME280;6016;41.928;25.556;2022-12-07T10:46:42;98902.00;;;12.63;69.22
11912;BME280;6016;41.928;25.556;2022-12-07T10:52:18;99046.28;;;13.29;69.39
11912;BME280;6016;41.928;25.556;2022-12-07T10:54:56;99073.06;;;13.52;69.64
11912;BME280;6016;41.928;25.556;2022-12-07T10:57:40;98979.41;;;12.92;69.74
11912;BME280;6016;41.928;25.556;2022-12-07T11:00:16;99059.31;;;13.57;70.17
11912;BME280;6016;41.928;25.556;2022-12-07T11:03:05;99070.91;;;13.47;68.75
11912;BME280;6016;41.928;25.556;2022-12-07T11:05:43;99032.03;;;13.30;69.87
11912;BME280;6016;41.928;25.556;2022-12-07T11:08:33;99018.44;;;13.25;69.21
11912;BME280;6016;41.928;25.556;2022-12-07T11:11:09;99057.53;;;13.31;68.53
11912;BME280;6016;41.928;25.556;2022-12-07T11:13:43;98991.13;;;12.89;69.72
11912;BME280;6016;41.928;25.556;2022-12-07T11:16:23;99026.06;;;13.28;69.94
11912;BME280;6016;41.928;25.556;2022-12-07T11:19:03;98895.81;;;12.46;69.61
11912;BME280;6016;41.928;25.556;2022-12-07T11:21:42;98978.03;;;12.79;70.30
11912;BME280;6016;41.928;25.556;2022-12-07T11:24:15;99033.03;;;13.29;70.80
11912;BME280;6016;41.928;25.556;2022-12-07T11:26:55;98524.25;;;10.07;70.43
11912;BME280;6016;41.928;25.556;2022-12-07T11:29:50;99033.69;;;13.22;69.55
11912;BME280;6016;41.928;25.556;2022-12-07T11:32:34;99030.84;;;13.16;70.42
11912;BME280;6016;41.928;25.556;2022-12-07T11:35:14;99021.00;;;13.08;71.17
11912;BME280;6016;41.928;25.556;2022-12-07T11:37:46;98934.56;;;12.64;71.04
11912;BME280;6016;41.928;25.556;2022-12-07T11:40:17;98885.13;;;12.30;70.39
11912;BME280;6016;41.928;25.556;2022-12-07T11:42:50;99021.91;;;13.25;70.76
11912;BME280;6016;41.928;25.556;2022-12-07T11:45:21;99017.47;;;13.26;72.18
11912;BME280;6016;41.928;25.556;2022-12-07T11:47:55;98996.31;;;12.99;71.94
11912;BME280;6016;41.928;25.556;2022-12-07T11:50:33;99010.25;;;13.44;70.66
11912;BME280;6016;41.928;25.556;2022-12-07T11:53:03;98873.19;;;12.52;70.02
11912;BME280;6016;41.928;25.556;2022-12-07T11:55:42;98783.72;;;12.13;70.13
11912;BME280;6016;41.928;25.556;2022-12-07T11:58:27;98961.13;;;13.15;69.75
11912;BME280;6016;41.928;25.556;2022-12-07T12:01:24;98995.63;;;13.32;69.51
11912;BME280;6016;41.928;25.556;2022-12-07T12:03:56;98978.38;;;13.28;69.83
11912;BME280;6016;41.928;25.556;2022-12-07T12:06:27;98985.34;;;13.29;71.56
11912;BME280;6016;41.928;25.556;2022-12-07T12:09:02;98886.72;;;12.22;72.07
11912;BME280;6016;41.928;25.556;2022-12-07T12:11:41;98979.91;;;13.39;72.25
11912;BME280;6016;41.928;25.556;2022-12-07T12:14:27;98983.91;;;13.43;72.30
11912;BME280;6016;41.928;25.556;2022-12-07T12:17:12;98986.41;;;13.44;72.48
11912;BME280;6016;41.928;25.556;2022-12-07T12:19:58;98978.63;;;13.43;71.79
11912;BME280;6016;41.928;25.556;2022-12-07T12:22:33;98983.72;;;13.36;71.78
11912;BME280;6016;41.928;25.556;2022-12-07T12:25:05;98979.91;;;13.30;71.91
11912;BME280;6016;41.928;25.556;2022-12-07T12:27:35;98984.69;;;13.27;72.21
11912;BME280;6016;41.928;25.556;2022-12-07T12:30:06;98947.56;;;13.10;72.04
11912;BME280;6016;41.928;25.556;2022-12-07T12:32:39;98900.28;;;12.89;72.32
11912;BME280;6016;41.928;25.556;2022-12-07T12:35:30;98970.16;;;13.39;72.87
11912;BME280;6016;41.928;25.556;2022-12-07T12:38:32;98964.34;;;13.35;72.52
11912;BME280;6016;41.928;25.556;2022-12-07T12:41:02;98961.03;;;13.33;72.42
11912;BME280;6016;41.928;25.556;2022-12-07T12:43:48;98962.34;;;13.37;72.31
11912;BME280;6016;41.928;25.556;2022-12-07T12:46:45;98962.34;;;13.29;72.65
11912;BME280;6016;41.928;25.556;2022-12-07T12:49:34;98941.19;;;12.94;73.42
11912;BME280;6016;41.928;25.556;2022-12-07T12:55:17;98837.72;;;12.36;74.31
11912;BME280;6016;41.928;25.556;2022-12-07T12:57:47;98907.69;;;12.77;74.13
11912;BME280;6016;41.928;25.556;2022-12-07T13:00:19;98951.63;;;12.96;74.63
11912;BME280;6016;41.928;25.556;2022-12-07T13:02:53;98712.25;;;11.35;73.60
11912;BME280;6016;41.928;25.556;2022-12-07T13:05:22;98869.06;;;12.58;73.60
11912;BME280;6016;41.928;25.556;2022-12-07T13:08:00;98751.19;;;11.86;74.04
11912;BME280;6016;41.928;25.556;2022-12-07T13:10:39;98900.94;;;12.83;73.85
11912;BME280;6016;41.928;25.556;2022-12-07T13:13:34;98909.22;;;12.79;73.04
11912;BME280;6016;41.928;25.556;2022-12-07T13:16:39;98951.47;;;12.98;73.75
11912;BME280;6016;41.928;25.556;2022-12-07T13:22:50;98952.28;;;12.90;74.92
11912;BME280;6016;41.928;25.556;2022-12-07T13:25:31;98891.97;;;12.41;74.00
11912;BME280;6016;41.928;25.556;2022-12-07T13:28:14;98805.84;;;11.85;74.38
11912;BME280;6016;41.928;25.556;2022-12-07T13:30:47;98607.28;;;10.11;74.91
11912;BME280;6016;41.928;25.556;2022-12-07T13:33:17;98970.28;;;12.60;75.16